Portada
METAR-TAF:

METAR-TAF

Aeroports :

Qurayyat, Aràbia Saudita

latitud: 31-24N, longitud: 037-16E, altitud: 509 m

Observació

L'informe es va fer fa 22 minuts, a les 15:00 UTC
Vent 30 kt del Oest
Temperatura 32°C
Humitat 13%
Pressió 1011 hPa
Visibilitat: 8000 m

METAR: OEGT 061500Z 27030KT 8000 NSC 32/00 Q1011 NOSIG

Hora: 18:22 (15:22 UTC)

Pronòstic

L'informe es va fer fa 4 hores i 22 minuts, a les 11:00 UTC
Pronòstic vàlid del 06 a les 12 UTC al 07 a les 18 UTC
Vent 20 kt del Oest/Nord-Oest
Visibilitat: 7000 m
Temporalment
l' 06 a les 12 UTC al 06 a les 20 UTC
Visibilitat: 3500 m
torb alta de pols
Evolucionant progressivament
l' 06 a les 21 UTC al 06 a les 23 UTC
Vent 10 kt del Oest

TAF: OEGT 061100Z 0612/0718 30020KT 7000 NSC TEMPO 0612/0620 3500 BLDU BECMG 0621/0623 28010KT

Observacions i pronòstics meteorològics de més de 4000 aeroports (METAR i TAF).

Les estacions disponibles són els punts grocs i vermells al mapa.

Posi el ratolí al punt desitjat per veure el nom de l'estació.

Feu clic per veure les observacions i els pronòstics meteorològics.

Per canviar el mapa: feu clic els botons verds amb una creu de color negre per apropar; al botó verd amb un guió per allunyar la imatge; o en les fletxes verdes per a mapes adjacents.


METAR-TAF: